This is the latest recevied weather packets stored in our database for station/object VA7SHG-1. If no packets are shown the sender has not sent any weather packets the latest 10 day(s).
| Time | Temp. | Humidity | Pressure | Rain* | Wind** | Luminosity | Snow |
|---|---|---|---|---|---|---|---|
| 1777925717 | 26.67° C | 33% | 1009.6 hPa | 0 mm | - | 967 W/m² | - |
| 1777923919 | 28.33° C | 32% | 1009.5 hPa | 0 mm | - | 975 W/m² | - |
| 1777923317 | 28.33° C | 30% | 1009.6 hPa | 0 mm | - | 973 W/m² | - |
| 1777922720 | 28.33° C | 30% | 1009.6 hPa | 0 mm | - | 968 W/m² | - |
| 1777922118 | 28.89° C | 28% | 1009.7 hPa | 0 mm | - | 965 W/m² | - |
| 1777914919 | 23.33° C | 36% | 1010.8 hPa | 0 mm | - | 695 W/m² | - |
| 1777914320 | 23.33° C | 36% | 1010.9 hPa | 0 mm | - | 646 W/m² | - |
| 1777912518 | 22.78° C | 38% | 1010.9 hPa | 0 mm | - | 584 W/m² | - |
| 1777910740 | 22.22° C | 40% | 1011.1 hPa | 0 mm | - | 539 W/m² | - |
| 1777910138 | 21.67° C | 41% | 1011.1 hPa | 0 mm | - | 526 W/m² | - |
| 1777899318 | 15° C | 63% | 1010.5 hPa | 0 mm | - | 9 W/m² | - |
| 1777898718 | 13.33° C | 65% | 1010.5 hPa | 0 mm | - | 4 W/m² | - |
| 1777894517 | 13.33° C | 74% | 1010.7 hPa | 0 mm | - | 0 W/m² | - |
| 1777892719 | 13.89° C | 73% | 1010.6 hPa | 0 mm | - | 0 W/m² | - |
| 1777891518 | 14.44° C | 72% | 1010.6 hPa | 0 mm | - | 0 W/m² | - |
| 1777888519 | 15.56° C | 66% | 1010.5 hPa | 0 mm | - | 0 W/m² | - |
| 1777886138 | 15° C | 69% | 1010.5 hPa | 0 mm | - | 0 W/m² | - |
| 1777884319 | 16.11° C | 65% | 1010.5 hPa | 0 mm | - | 0 W/m² | - |
| 1777881318 | 17.78° C | 59% | 1010.4 hPa | 0 mm | - | 0 W/m² | - |
| 1777877718 | 18.33° C | 55% | 1010.2 hPa | 0 mm | - | 0 W/m² | - |
| 1777877118 | 18.89° C | 54% | 1010.2 hPa | 0 mm | - | 0 W/m² | - |
| 1777875318 | 18.89° C | 54% | 1010.1 hPa | 0 mm | - | 0 W/m² | - |
| 1777874139 | 19.44° C | 56% | 1010.1 hPa | 0 mm | - | 0 W/m² | - |
| 1777868717 | 21.11° C | 51% | 1010 hPa | 0 mm | - | 0 W/m² | - |
| 1777865718 | 24.44° C | 39% | 1009.6 hPa | 0 mm | - | 3 W/m² | - |
* Rain latest hour (hover to see other rain measurements)
** Current wind speed in m/s (hover to see current wind gust speed)